Time;durP1;ratioP1;P1;durP2;ratioP2;P2;SDS_P1;SDS_P2;PMS_P1;PMS_P2;Temp;Humidity;BMP_temperature;BMP_pressure;BME280_temperature;BME280_humidity;BME280_pressure;Samples;Min_cycle;Max_cycle;Signal;HPM_P1;HPM_P2
2022/07/27 00:02:21;;;;;;;4.22;1.80;;;15.40;99.90;;;;;;5091433;28;20044;-71
2022/07/27 00:04:46;;;;;;;5.28;2.00;;;15.30;99.90;;;;;;5090644;28;20127;-70
2022/07/27 00:07:12;;;;;;;6.78;1.80;;;15.30;99.90;;;;;;5090553;28;20031;-70
2022/07/27 00:09:37;;;;;;;6.80;1.65;;;15.30;99.90;;;;;;5090244;28;20468;-70
2022/07/27 00:12:03;;;;;;;6.82;1.65;;;15.20;99.90;;;;;;5090245;28;20119;-70
2022/07/27 00:14:29;;;;;;;4.10;1.65;;;15.10;99.90;;;;;;5089706;28;20403;-70
2022/07/27 00:16:55;;;;;;;5.80;2.08;;;15.00;99.90;;;;;;5089815;28;20044;-71
2022/07/27 00:19:22;;;;;;;5.80;2.05;;;15.00;99.90;;;;;;5089776;28;20131;-70
2022/07/27 00:21:48;;;;;;;2.08;1.42;;;15.00;99.90;;;;;;5089552;28;20040;-71
2022/07/27 00:24:14;;;;;;;4.53;1.85;;;15.00;99.90;;;;;;5090671;28;20040;-70
2022/07/27 00:26:39;;;;;;;7.18;1.98;;;15.00;99.90;;;;;;5089510;28;20043;-70
2022/07/27 00:29:05;;;;;;;4.38;1.80;;;15.00;99.90;;;;;;5089575;28;20407;-70
2022/07/27 00:31:30;;;;;;;5.07;1.70;;;15.00;99.90;;;;;;5072583;28;20500;-70
2022/07/27 00:33:56;;;;;;;4.82;2.00;;;14.90;99.90;;;;;;5089269;28;20040;-70
2022/07/27 00:36:21;;;;;;;5.90;1.98;;;14.90;99.90;;;;;;5089629;28;20434;-70
2022/07/27 00:38:47;;;;;;;4.82;1.88;;;14.90;99.90;;;;;;5096011;28;20044;-70
2022/07/27 00:41:12;;;;;;;3.88;1.60;;;14.90;99.90;;;;;;5096361;28;20484;-70
2022/07/27 00:43:56;;;;;;;5.03;1.77;;;14.90;99.90;;;;;;5089386;28;20047;-70
2022/07/27 00:46:23;;;;;;;4.18;2.05;;;14.90;99.90;;;;;;5089565;28;20043;-70
2022/07/27 00:48:49;;;;;;;4.13;1.75;;;14.90;99.90;;;;;;5089666;28;20130;-70
2022/07/27 00:51:16;;;;;;;7.47;1.80;;;14.90;99.90;;;;;;5089490;28;20047;-71
2022/07/27 00:53:42;;;;;;;7.75;1.80;;;14.90;99.90;;;;;;5089167;28;20043;-70
2022/07/27 00:56:08;;;;;;;8.40;1.95;;;14.90;99.90;;;;;;5089728;28;20152;-69
2022/07/27 00:58:36;;;;;;;6.32;2.10;;;14.90;99.90;;;;;;5090944;28;20043;-70
2022/07/27 01:01:02;;;;;;;2.33;1.77;;;15.00;99.90;;;;;;5088525;28;20131;-71
2022/07/27 01:03:28;;;;;;;6.25;2.10;;;15.00;99.90;;;;;;5089077;28;20130;-70
2022/07/27 01:05:53;;;;;;;4.70;2.08;;;15.00;99.90;;;;;;5089377;28;20028;-70
2022/07/27 01:08:19;;;;;;;4.55;2.03;;;15.00;99.90;;;;;;5089587;28;20567;-71
2022/07/27 01:10:46;;;;;;;9.93;2.65;;;15.00;99.90;;;;;;5072204;28;20039;-71
2022/07/27 01:13:14;;;;;;;8.77;2.00;;;15.00;99.90;;;;;;5089100;28;20051;-70
2022/07/27 01:15:41;;;;;;;7.78;2.20;;;15.00;99.90;;;;;;5088946;28;20083;-70
2022/07/27 01:18:11;;;;;;;7.07;2.10;;;15.00;99.90;;;;;;5089092;28;20098;-71
2022/07/27 01:20:39;;;;;;;5.25;1.80;;;15.00;99.90;;;;;;5090316;28;20048;-71
2022/07/27 01:23:05;;;;;;;3.13;1.92;;;15.00;99.90;;;;;;5090112;28;20784;-70
2022/07/27 01:25:31;;;;;;;7.72;2.05;;;15.00;99.90;;;;;;5089064;28;20044;-71
2022/07/27 01:27:56;;;;;;;5.03;1.98;;;15.00;99.90;;;;;;5090656;28;20496;-71
2022/07/27 01:30:31;;;;;;;4.05;1.90;;;15.00;99.90;;;;;;5090401;28;20058;-71
2022/07/27 01:33:04;;;;;;;7.20;1.90;;;15.00;99.90;;;;;;5090045;28;20052;-71
2022/07/27 01:35:30;;;;;;;2.97;1.83;;;15.00;99.90;;;;;;5088918;28;20044;-71
2022/07/27 01:37:56;;;;;;;4.30;1.90;;;15.00;99.90;;;;;;5090376;28;20404;-71
2022/07/27 01:40:22;;;;;;;4.45;2.28;;;15.00;99.90;;;;;;5088839;28;20047;-71
2022/07/27 01:42:48;;;;;;;9.07;2.13;;;15.00;99.90;;;;;;5089854;28;20438;-72
2022/07/27 01:45:14;;;;;;;8.70;1.90;;;15.00;99.90;;;;;;5088939;28;20044;-71
2022/07/27 01:47:39;;;;;;;5.07;1.80;;;15.10;99.90;;;;;;5088669;28;20036;-71
2022/07/27 01:50:05;;;;;;;8.07;2.28;;;15.10;99.90;;;;;;5089133;28;20048;-71
2022/07/27 01:52:31;;;;;;;6.15;1.77;;;15.10;99.90;;;;;;5071865;28;20123;-71
2022/07/27 01:54:56;;;;;;;6.95;1.92;;;15.10;99.90;;;;;;5072778;28;20373;-71
2022/07/27 01:57:22;;;;;;;5.93;2.13;;;15.10;99.90;;;;;;5092337;28;20092;-71
2022/07/27 01:59:47;;;;;;;3.53;1.85;;;15.10;99.90;;;;;;5074055;28;20040;-69
2022/07/27 02:02:14;;;;;;;3.03;1.67;;;15.10;99.90;;;;;;5088557;28;20036;-70
2022/07/27 02:04:41;;;;;;;4.07;1.85;;;15.10;99.90;;;;;;5071536;28;20061;-69
2022/07/27 02:07:07;;;;;;;4.47;1.77;;;15.10;99.90;;;;;;5088512;28;20036;-70
2022/07/27 02:09:32;;;;;;;5.32;2.00;;;15.10;99.90;;;;;;5090223;28;20123;-69
2022/07/27 02:14:42;;;;;;;2.30;1.70;;;15.10;99.90;;;;;;5092623;28;20047;-70
2022/07/27 02:17:07;;;;;;;6.78;2.13;;;15.10;99.90;;;;;;5092494;28;20496;-70
2022/07/27 02:19:33;;;;;;;5.97;1.95;;;15.10;99.90;;;;;;5092796;28;20557;-71
2022/07/27 02:21:58;;;;;;;2.75;1.85;;;15.10;99.90;;;;;;5092287;28;20077;-71
2022/07/27 02:24:24;;;;;;;5.63;2.00;;;15.00;99.90;;;;;;5092007;28;20053;-70
2022/07/27 02:26:49;;;;;;;3.25;1.60;;;15.00;99.90;;;;;;5092231;28;20044;-70
2022/07/27 02:29:15;;;;;;;6.32;2.20;;;15.00;99.90;;;;;;5093620;28;20112;-71
2022/07/27 02:31:41;;;;;;;4.03;1.90;;;15.00;99.90;;;;;;5093359;28;20165;-70
2022/07/27 02:34:06;;;;;;;9.00;2.22;;;15.00;99.90;;;;;;5092142;28;20489;-70
2022/07/27 02:36:32;;;;;;;4.40;2.10;;;15.00;99.90;;;;;;5092084;28;20112;-70
2022/07/27 02:38:58;;;;;;;5.75;1.80;;;14.90;99.90;;;;;;5093458;28;20093;-71
2022/07/27 02:41:24;;;;;;;4.18;2.00;;;14.90;99.90;;;;;;5091964;28;20040;-70
2022/07/27 02:43:49;;;;;;;6.43;2.30;;;14.90;99.90;;;;;;5091513;28;20075;-70
2022/07/27 02:46:15;;;;;;;6.38;2.00;;;14.80;99.90;;;;;;5074998;28;20560;-70
2022/07/27 02:48:41;;;;;;;4.10;1.70;;;14.80;99.90;;;;;;5093456;28;20040;-69
2022/07/27 02:51:06;;;;;;;5.07;2.03;;;14.70;99.90;;;;;;5093098;28;20048;-69
2022/07/27 02:53:32;;;;;;;9.15;2.28;;;14.70;99.90;;;;;;5092797;28;20043;-70
2022/07/27 02:55:57;;;;;;;5.53;2.38;;;14.70;99.90;;;;;;5091843;28;20047;-70
2022/07/27 02:58:23;;;;;;;5.38;2.08;;;14.60;99.90;;;;;;5092363;28;20588;-69
2022/07/27 03:00:49;;;;;;;4.85;1.90;;;14.60;99.90;;;;;;5093785;28;20040;-68
2022/07/27 03:03:14;;;;;;;3.63;1.80;;;14.60;99.90;;;;;;5091407;28;20063;-69
2022/07/27 03:05:40;;;;;;;4.10;2.22;;;14.50;99.90;;;;;;5091590;28;20043;-69
2022/07/27 03:08:06;;;;;;;5.60;2.05;;;14.50;99.90;;;;;;5091653;28;20738;-70
2022/07/27 03:10:31;;;;;;;6.85;2.42;;;14.40;99.90;;;;;;5091643;28;20036;-69
2022/07/27 03:12:57;;;;;;;5.05;1.92;;;14.40;99.90;;;;;;5091984;28;20122;-69
2022/07/27 03:15:23;;;;;;;6.68;2.00;;;14.40;99.90;;;;;;5094335;28;20085;-69
2022/07/27 03:17:49;;;;;;;4.15;2.13;;;14.30;99.90;;;;;;5094266;28;20039;-69
2022/07/27 03:20:14;;;;;;;5.85;2.28;;;14.30;99.90;;;;;;5091231;28;20101;-69
2022/07/27 03:22:41;;;;;;;2.53;1.67;;;14.30;99.90;;;;;;5089948;28;20075;-69
2022/07/27 03:25:07;;;;;;;8.45;2.20;;;14.20;99.90;;;;;;5091237;28;20070;-69
2022/07/27 03:27:33;;;;;;;2.95;2.10;;;14.20;99.90;;;;;;5092611;28;20044;-69
2022/07/27 03:29:58;;;;;;;5.88;2.17;;;14.20;99.90;;;;;;5090911;28;20040;-69
2022/07/27 03:32:24;;;;;;;5.00;2.20;;;14.10;99.90;;;;;;5092360;28;20518;-71
2022/07/27 03:34:50;;;;;;;8.82;2.38;;;14.10;99.90;;;;;;5092344;28;20040;-70
2022/07/27 03:37:16;;;;;;;3.80;2.20;;;14.10;99.90;;;;;;5092531;28;20085;-69
2022/07/27 03:39:41;;;;;;;2.20;2.00;;;14.00;99.90;;;;;;5091078;28;20052;-68
2022/07/27 03:42:07;;;;;;;3.42;2.15;;;14.00;99.90;;;;;;5089608;28;20040;-69
2022/07/27 03:44:33;;;;;;;5.03;2.33;;;14.00;99.90;;;;;;5070521;28;20059;-69
2022/07/27 03:46:58;;;;;;;5.93;2.30;;;14.00;99.90;;;;;;5087374;28;20043;-69
2022/07/27 03:49:24;;;;;;;14.60;2.35;;;13.90;99.90;;;;;;5088357;28;20496;-69
2022/07/27 03:51:50;;;;;;;7.57;2.38;;;13.90;99.90;;;;;;5088787;28;20040;-69
2022/07/27 03:54:16;;;;;;;4.28;2.25;;;13.90;99.90;;;;;;5073576;28;20043;-69
2022/07/27 03:56:45;;;;;;;3.95;2.40;;;13.90;99.90;;;;;;5090011;28;20056;-69
2022/07/27 03:59:11;;;;;;;3.53;1.98;;;13.90;99.90;;;;;;5072661;28;20128;-68
2022/07/27 04:01:36;;;;;;;6.40;2.47;;;13.90;99.90;;;;;;5089120;28;20079;-69
2022/07/27 04:04:02;;;;;;;7.97;2.20;;;13.90;99.90;;;;;;5089440;28;20054;-69
2022/07/27 04:06:28;;;;;;;5.68;2.40;;;13.90;99.90;;;;;;5074198;28;20119;-69
2022/07/27 04:08:53;;;;;;;2.45;2.25;;;13.90;99.90;;;;;;5090970;28;20028;-69
2022/07/27 04:11:19;;;;;;;4.82;2.30;;;13.90;99.90;;;;;;5073685;28;20040;-69
2022/07/27 04:13:48;;;;;;;3.00;2.35;;;13.90;99.90;;;;;;5089684;28;20050;-69
2022/07/27 04:16:13;;;;;;;6.75;2.90;;;13.90;99.90;;;;;;5090255;28;20097;-69
2022/07/27 04:18:39;;;;;;;7.07;2.53;;;13.90;99.90;;;;;;5091410;28;20040;-69
2022/07/27 04:21:05;;;;;;;4.15;2.13;;;13.90;99.90;;;;;;5091265;28;20139;-69
2022/07/27 04:23:31;;;;;;;6.25;2.33;;;13.90;99.90;;;;;;5072731;28;20044;-69
2022/07/27 04:25:57;;;;;;;5.55;2.00;;;13.90;99.90;;;;;;5090098;28;20035;-70
2022/07/27 04:28:23;;;;;;;4.53;2.35;;;14.00;99.90;;;;;;5091286;28;20040;-69
2022/07/27 04:30:49;;;;;;;7.13;2.58;;;13.90;99.90;;;;;;5090599;28;20249;-69
2022/07/27 04:33:14;;;;;;;4.95;2.40;;;13.90;99.90;;;;;;5093341;28;20048;-69
2022/07/27 04:35:40;;;;;;;4.72;2.83;;;13.90;99.90;;;;;;5092720;28;20499;-69
2022/07/27 04:38:05;;;;;;;9.55;2.88;;;13.90;99.90;;;;;;5090649;28;20060;-70
2022/07/27 04:40:32;;;;;;;5.97;2.65;;;13.90;99.90;;;;;;5091269;28;20136;-70
2022/07/27 04:43:03;;;;;;;5.60;2.17;;;13.90;99.90;;;;;;5089357;28;20204;-70
2022/07/27 04:45:28;;;;;;;4.70;2.38;;;14.00;99.90;;;;;;5089857;28;20036;-70
2022/07/27 04:47:54;;;;;;;7.95;2.50;;;14.00;99.90;;;;;;5091148;28;20069;-70
2022/07/27 04:50:20;;;;;;;7.43;2.42;;;14.00;99.90;;;;;;5090967;28;20062;-70
2022/07/27 04:52:45;;;;;;;7.75;3.00;;;14.10;99.90;;;;;;5089628;28;20048;-70
2022/07/27 04:55:11;;;;;;;27.25;3.28;;;14.10;99.90;;;;;;5090912;28;20081;-70
2022/07/27 04:57:37;;;;;;;4.72;2.50;;;14.10;99.90;;;;;;5090758;28;20047;-70
2022/07/27 05:00:04;;;;;;;4.68;3.05;;;14.20;99.90;;;;;;5090843;28;20441;-70
2022/07/27 05:02:30;;;;;;;5.57;2.60;;;14.20;99.90;;;;;;5088935;28;20032;-70
2022/07/27 05:04:58;;;;;;;7.95;3.10;;;14.20;99.90;;;;;;5090674;28;20035;-70
2022/07/27 05:07:23;;;;;;;4.95;2.58;;;14.30;99.90;;;;;;5089307;28;20082;-70
2022/07/27 05:09:49;;;;;;;4.43;2.40;;;14.30;99.90;;;;;;5090394;28;20040;-70
2022/07/27 05:12:15;;;;;;;8.35;3.13;;;14.30;99.90;;;;;;5088973;28;20039;-70
2022/07/27 05:14:40;;;;;;;6.07;3.42;;;14.30;99.90;;;;;;5072573;28;20060;-70
2022/07/27 05:17:06;;;;;;;6.60;2.60;;;14.30;99.90;;;;;;5091012;28;20070;-69
2022/07/27 05:19:32;;;;;;;8.55;2.90;;;14.30;99.90;;;;;;5089410;28;20036;-69
2022/07/27 05:21:58;;;;;;;7.25;2.55;;;14.30;99.90;;;;;;5089221;28;20035;-70
2022/07/27 05:24:24;;;;;;;6.25;3.03;;;14.40;99.90;;;;;;5090265;28;20447;-69
2022/07/27 05:26:49;;;;;;;7.85;2.85;;;14.50;99.90;;;;;;5090885;28;20035;-70
2022/07/27 05:29:15;;;;;;;5.85;2.80;;;14.60;99.90;;;;;;5090678;28;20059;-70
2022/07/27 05:31:41;;;;;;;5.00;2.10;;;14.50;99.90;;;;;;5089305;28;20445;-70
2022/07/27 05:34:06;;;;;;;6.22;2.80;;;14.60;99.90;;;;;;5088996;28;20043;-70
2022/07/27 05:36:33;;;;;;;6.97;2.63;;;14.70;99.90;;;;;;5089169;28;20040;-70
2022/07/27 05:38:58;;;;;;;5.57;2.80;;;14.60;99.90;;;;;;5088903;28;20039;-70
2022/07/27 05:41:25;;;;;;;6.43;2.83;;;14.70;99.90;;;;;;5088849;28;20361;-69
2022/07/27 05:43:53;;;;;;;6.18;2.65;;;14.70;99.90;;;;;;5088449;28;20055;-69
2022/07/27 05:46:18;;;;;;;9.60;2.75;;;14.70;99.90;;;;;;5089947;28;20391;-69
2022/07/27 05:48:44;;;;;;;6.95;2.40;;;14.80;99.90;;;;;;5088903;28;20036;-69
2022/07/27 05:51:10;;;;;;;5.95;2.72;;;14.80;99.90;;;;;;5090344;28;20770;-69
2022/07/27 05:53:36;;;;;;;9.50;2.65;;;14.80;99.90;;;;;;5090468;28;20176;-69
2022/07/27 05:56:01;;;;;;;9.27;3.05;;;14.80;99.90;;;;;;5090649;28;20093;-70
2022/07/27 05:58:28;;;;;;;5.03;2.45;;;14.80;99.90;;;;;;5072076;28;20070;-69
2022/07/27 06:00:55;;;;;;;7.03;2.83;;;14.80;99.90;;;;;;5088664;28;20119;-70
2022/07/27 06:03:21;;;;;;;4.40;2.50;;;14.90;99.90;;;;;;5089663;28;20048;-69
2022/07/27 06:05:47;;;;;;;6.65;2.35;;;15.00;99.90;;;;;;5090064;28;20040;-69
2022/07/27 06:08:12;;;;;;;6.88;2.63;;;15.00;99.90;;;;;;5069378;28;20040;-69
2022/07/27 06:10:41;;;;;;;8.82;2.90;;;15.00;99.90;;;;;;5049757;28;20098;-70
2022/07/27 06:13:09;;;;;;;6.25;2.63;;;15.00;99.90;;;;;;5031403;28;20041;-69
2022/07/27 06:15:35;;;;;;;6.70;2.53;;;15.00;99.90;;;;;;5049743;28;20489;-70
2022/07/27 06:18:02;;;;;;;8.63;2.42;;;15.10;99.90;;;;;;5049740;28;20520;-69
2022/07/27 06:20:29;;;;;;;5.15;2.20;;;15.10;99.90;;;;;;5048083;28;20041;-70
2022/07/27 06:22:58;;;;;;;7.28;2.45;;;15.20;99.90;;;;;;5048750;28;20571;-69
2022/07/27 06:25:26;;;;;;;5.00;2.17;;;15.20;99.90;;;;;;5051094;28;20167;-70
2022/07/27 06:27:52;;;;;;;8.05;2.28;;;15.20;99.90;;;;;;5048511;28;20182;-69
2022/07/27 06:30:21;;;;;;;5.35;2.60;;;15.20;99.90;;;;;;5049559;28;20133;-68
2022/07/27 06:32:47;;;;;;;5.97;2.50;;;15.20;99.90;;;;;;5049380;28;20045;-69
2022/07/27 06:35:13;;;;;;;7.65;2.40;;;15.10;99.90;;;;;;5049573;28;20167;-69
2022/07/27 06:37:51;;;;;;;9.93;2.55;;;15.10;99.90;;;;;;5049433;28;20045;-69
2022/07/27 06:40:17;;;;;;;5.25;2.30;;;15.10;99.90;;;;;;5049530;28;20049;-69
2022/07/27 06:42:42;;;;;;;7.38;2.65;;;15.10;99.90;;;;;;5049320;28;20045;-69
2022/07/27 06:45:08;;;;;;;8.57;2.80;;;15.20;99.90;;;;;;5048148;28;20041;-69
2022/07/27 06:47:34;;;;;;;6.80;2.65;;;15.20;99.90;;;;;;5048280;28;20033;-69
2022/07/27 06:50:00;;;;;;;7.93;3.08;;;15.20;99.90;;;;;;5047957;28;20053;-69
2022/07/27 06:52:26;;;;;;;7.70;2.38;;;15.20;99.90;;;;;;5047768;28;20045;-70
2022/07/27 06:54:51;;;;;;;8.20;2.53;;;15.30;99.90;;;;;;5047940;28;20354;-70
2022/07/27 06:57:17;;;;;;;7.50;2.85;;;15.20;99.90;;;;;;5048140;28;20037;-70
2022/07/27 06:59:42;;;;;;;9.10;2.50;;;15.30;99.90;;;;;;5052184;28;20044;-70
2022/07/27 07:02:08;;;;;;;9.50;2.40;;;15.20;99.90;;;;;;5052810;28;20116;-70
2022/07/27 07:04:34;;;;;;;7.65;2.55;;;15.30;99.90;;;;;;5056779;28;20048;-70
2022/07/27 07:07:00;;;;;;;6.47;2.63;;;15.30;99.90;;;;;;5040980;28;20064;-70
2022/07/27 07:09:29;;;;;;;6.65;1.88;;;15.30;99.90;;;;;;5063052;28;20109;-69
2022/07/27 07:11:55;;;;;;;7.28;2.13;;;15.30;99.90;;;;;;5062773;28;20037;-70
2022/07/27 07:14:22;;;;;;;5.03;2.00;;;15.40;99.90;;;;;;5066303;28;20048;-69
2022/07/27 07:16:48;;;;;;;7.22;2.13;;;15.40;99.90;;;;;;5072414;28;20040;-69
2022/07/27 07:19:15;;;;;;;8.52;2.40;;;15.60;99.90;;;;;;5072412;28;20098;-69
2022/07/27 07:21:40;;;;;;;4.10;2.17;;;15.50;99.90;;;;;;5072405;28;20033;-69
2022/07/27 07:24:06;;;;;;;6.10;2.00;;;15.40;99.90;;;;;;5072326;28;20272;-72
2022/07/27 07:26:31;;;;;;;5.68;2.03;;;15.50;99.90;;;;;;5074420;28;20132;-72
2022/07/27 07:28:57;;;;;;;7.63;2.13;;;15.60;99.90;;;;;;5074852;28;20044;-70
2022/07/27 07:31:23;;;;;;;4.15;2.28;;;15.60;99.90;;;;;;5078531;28;20032;-72
2022/07/27 07:33:48;;;;;;;4.43;2.00;;;15.50;99.90;;;;;;5076328;28;20044;-69
2022/07/27 07:36:14;;;;;;;4.70;1.98;;;15.70;99.90;;;;;;5075652;28;20071;-69
2022/07/27 07:38:40;;;;;;;5.65;1.83;;;15.70;99.90;;;;;;5074956;28;20125;-69
2022/07/27 07:41:05;;;;;;;7.90;2.17;;;15.70;99.90;;;;;;5073317;28;20036;-69
2022/07/27 07:43:34;;;;;;;4.93;1.35;;;15.80;99.90;;;;;;5072594;28;20161;-69
2022/07/27 07:45:59;;;;;;;2.03;1.38;;;15.70;99.90;;;;;;5073517;28;20048;-69
2022/07/27 07:48:25;;;;;;;4.13;1.50;;;15.70;99.90;;;;;;5073314;28;20062;-69
2022/07/27 07:50:52;;;;;;;5.57;1.65;;;15.70;99.90;;;;;;5073303;28;20123;-69
2022/07/27 07:53:17;;;;;;;6.68;1.70;;;15.80;99.90;;;;;;5073024;28;20040;-69
2022/07/27 07:55:43;;;;;;;3.10;1.20;;;16.00;99.90;;;;;;5074730;28;20044;-70
2022/07/27 07:58:09;;;;;;;7.15;1.30;;;16.00;99.90;;;;;;5074557;28;20052;-69
2022/07/27 08:00:34;;;;;;;4.78;1.55;;;16.10;99.90;;;;;;5073031;28;20040;-69
2022/07/27 08:03:00;;;;;;;6.50;1.75;;;16.10;99.90;;;;;;5055441;28;20124;-69
2022/07/27 08:05:26;;;;;;;5.95;1.55;;;16.10;99.90;;;;;;5072794;28;20053;-69
2022/07/27 08:07:53;;;;;;;7.18;2.20;;;16.20;99.90;;;;;;5074509;28;20039;-69
2022/07/27 08:10:21;;;;;;;7.95;1.48;;;16.30;99.90;;;;;;5073841;28;20070;-69
2022/07/27 08:12:51;;;;;;;5.68;2.03;;;16.40;99.90;;;;;;5074065;28;20044;-69
2022/07/27 08:15:17;;;;;;;5.63;1.50;;;16.50;99.90;;;;;;5073514;28;20565;-69
2022/07/27 08:17:43;;;;;;;8.70;1.40;;;16.60;99.90;;;;;;5072429;28;20399;-69
2022/07/27 08:20:09;;;;;;;4.75;1.50;;;16.60;99.90;;;;;;5073639;28;20024;-69
2022/07/27 08:22:35;;;;;;;2.42;1.50;;;16.60;99.90;;;;;;5073451;28;20447;-69
2022/07/27 08:25:01;;;;;;;4.43;1.40;;;16.70;99.90;;;;;;5073574;28;20041;-69
2022/07/27 08:27:27;;;;;;;4.65;1.50;;;16.80;99.90;;;;;;5074189;28;20461;-70
2022/07/27 08:29:53;;;;;;;8.93;1.45;;;16.90;99.90;;;;;;5074369;28;20119;-69
2022/07/27 08:32:19;;;;;;;6.25;1.40;;;17.10;99.90;;;;;;5073685;28;20417;-70
2022/07/27 08:34:44;;;;;;;6.05;1.48;;;17.30;99.90;;;;;;5073609;28;20037;-70
2022/07/27 08:37:10;;;;;;;5.53;1.42;;;17.30;99.90;;;;;;5071722;28;20107;-70
2022/07/27 08:39:36;;;;;;;4.53;1.20;;;17.40;99.90;;;;;;5049431;28;20032;-70
2022/07/27 08:42:05;;;;;;;5.82;1.63;;;17.60;99.90;;;;;;5066654;28;20037;-70
2022/07/27 08:44:33;;;;;;;7.32;1.30;;;17.70;99.90;;;;;;5058506;28;20052;-72
2022/07/27 08:47:01;;;;;;;5.82;1.30;;;17.80;99.90;;;;;;5062308;28;20041;-72
2022/07/27 08:49:29;;;;;;;4.13;1.33;;;17.90;99.90;;;;;;5058685;28;20040;-71
2022/07/27 08:51:55;;;;;;;6.50;1.20;;;18.00;99.90;;;;;;5059480;28;20074;-72
2022/07/27 08:54:21;;;;;;;7.97;1.25;;;18.20;99.90;;;;;;5045586;28;20403;-70
2022/07/27 08:56:47;;;;;;;5.25;1.25;;;18.30;99.90;;;;;;5061222;28;20082;-69
2022/07/27 08:59:12;;;;;;;4.93;1.40;;;18.40;99.90;;;;;;5052461;28;20464;-69
2022/07/27 09:01:38;;;;;;;3.40;1.60;;;18.40;99.90;;;;;;5051776;28;20095;-69
2022/07/27 09:04:06;;;;;;;9.35;1.40;;;18.60;99.90;;;;;;5055692;28;20044;-69
2022/07/27 09:06:47;;;;;;;4.00;1.35;;;18.60;99.90;;;;;;5050565;28;20115;-69
2022/07/27 09:09:15;;;;;;;7.13;1.13;;;18.70;99.90;;;;;;5050756;28;20041;-70
2022/07/27 09:11:42;;;;;;;2.88;1.17;;;18.90;99.90;;;;;;5051352;28;20056;-73
2022/07/27 09:14:11;;;;;;;12.00;1.48;;;19.10;99.90;;;;;;5050670;28;20036;-72
2022/07/27 09:16:36;;;;;;;7.30;1.48;;;19.10;99.90;;;;;;5051506;28;20060;-71
2022/07/27 09:19:08;;;;;;;5.50;1.30;;;19.30;99.90;;;;;;5051650;28;20045;-71
2022/07/27 09:21:35;;;;;;;5.05;1.27;;;19.40;99.90;;;;;;5050989;28;20052;-71
2022/07/27 09:24:07;;;;;;;14.10;1.60;;;19.50;99.90;;;;;;5051887;28;20045;-72
2022/07/27 09:26:33;;;;;;;2.05;1.27;;;19.70;99.90;;;;;;5052844;28;20033;-72
2022/07/27 09:29:11;;;;;;;4.47;1.20;;;19.60;99.90;;;;;;5051732;28;20040;-72
2022/07/27 09:31:46;;;;;;;6.40;1.35;;;19.80;99.90;;;;;;5052441;28;20474;-73
2022/07/27 09:34:24;;;;;;;4.63;1.25;;;19.80;99.90;;;;;;5051236;28;20037;-73
2022/07/27 09:36:56;;;;;;;3.80;1.52;;;19.90;99.90;;;;;;5053566;28;20599;-73
2022/07/27 09:39:23;;;;;;;10.38;1.40;;;19.80;99.90;;;;;;5051321;28;20036;-72
2022/07/27 09:41:54;;;;;;;4.78;1.33;;;19.30;99.90;;;;;;5051924;28;20543;-72
2022/07/27 09:44:35;;;;;;;5.57;1.52;;;18.80;99.90;;;;;;5049747;28;20049;-71
2022/07/27 09:47:25;;;;;;;7.50;1.85;;;18.80;99.90;;;;;;5052685;28;20120;-72
2022/07/27 09:49:51;;;;;;;8.73;1.50;;;18.40;99.90;;;;;;5059484;28;20075;-72
2022/07/27 09:52:29;;;;;;;5.05;1.40;;;18.40;99.90;;;;;;5057394;28;20037;-72
2022/07/27 09:55:04;;;;;;;6.05;1.55;;;18.20;99.90;;;;;;5057090;28;20041;-72
2022/07/27 09:57:49;;;;;;;6.72;1.80;;;18.10;99.90;;;;;;5054475;28;20068;-72
2022/07/27 10:00:15;;;;;;;10.80;1.90;;;17.90;99.90;;;;;;5051711;28;20075;-73
2022/07/27 10:02:42;;;;;;;4.93;1.85;;;17.90;99.90;;;;;;5051210;28;20041;-72
2022/07/27 10:05:08;;;;;;;5.45;1.60;;;18.00;99.90;;;;;;5051629;28;20037;-72
2022/07/27 10:07:34;;;;;;;12.73;1.60;;;17.90;99.90;;;;;;5052037;28;20160;-70
2022/07/27 10:10:01;;;;;;;5.78;1.50;;;17.90;99.90;;;;;;5053162;28;20509;-71
2022/07/27 10:12:30;;;;;;;7.70;1.58;;;17.80;99.90;;;;;;5049981;28;20441;-73
2022/07/27 10:14:56;;;;;;;4.22;1.42;;;18.00;99.90;;;;;;5050510;28;20049;-73
2022/07/27 10:17:23;;;;;;;7.05;1.70;;;18.00;99.90;;;;;;5048728;28;20102;-73
2022/07/27 10:19:49;;;;;;;4.20;1.55;;;18.20;99.90;;;;;;5059018;28;20056;-73
2022/07/27 10:22:15;;;;;;;11.07;1.90;;;18.30;99.90;;;;;;5041054;28;20044;-73
2022/07/27 10:24:41;;;;;;;4.90;1.63;;;18.20;99.90;;;;;;5060236;28;20048;-73
2022/07/27 10:27:27;;;;;;;5.22;1.38;;;18.30;99.90;;;;;;5059734;28;20032;-73
2022/07/27 10:29:59;;;;;;;5.00;1.35;;;18.30;99.90;;;;;;5043070;28;20040;-73
2022/07/27 10:32:30;;;;;;;7.63;2.13;;;18.40;99.90;;;;;;5060606;28;20073;-73
2022/07/27 10:34:57;;;;;;;2.55;1.40;;;18.60;99.90;;;;;;5069805;28;20036;-74
2022/07/27 10:37:26;;;;;;;6.78;1.67;;;18.40;99.90;;;;;;5073199;28;20051;-73
2022/07/27 10:42:37;;;;;;;5.78;1.65;;;18.70;99.90;;;;;;5073457;28;20051;-73
2022/07/27 10:45:03;;;;;;;3.38;1.35;;;18.70;99.90;;;;;;5073645;28;20040;-73
2022/07/27 10:47:40;;;;;;;7.88;1.65;;;18.70;99.90;;;;;;5055776;28;20461;-73
2022/07/27 10:50:15;;;;;;;8.02;1.33;;;18.70;99.90;;;;;;5073803;28;20389;-74
2022/07/27 10:52:54;;;;;;;3.13;1.08;;;18.80;99.90;;;;;;5073175;28;20036;-73
2022/07/27 10:55:29;;;;;;;1.67;1.15;;;18.90;99.90;;;;;;5073569;28;20119;-73
2022/07/27 10:58:20;;;;;;;3.92;1.40;;;19.20;99.90;;;;;;5049700;28;20041;-73
2022/07/27 11:00:49;;;;;;;5.60;1.15;;;19.10;99.90;;;;;;5064756;28;20135;-74
2022/07/27 11:03:33;;;;;;;3.45;1.17;;;19.50;99.90;;;;;;5061809;28;20044;-73
2022/07/27 11:06:06;;;;;;;3.28;1.08;;;19.30;99.90;;;;;;5062074;28;20465;-74
2022/07/27 11:08:38;;;;;;;5.90;1.40;;;19.40;99.90;;;;;;5077898;28;20113;-74
2022/07/27 11:11:06;;;;;;;4.90;1.23;;;19.60;99.90;;;;;;5069317;28;20073;-72
2022/07/27 11:13:33;;;;;;;9.00;1.25;;;19.70;99.90;;;;;;5060005;28;20504;-72
2022/07/27 11:16:07;;;;;;;3.92;2.17;;;19.50;99.90;;;;;;5051308;28;20041;-72
2022/07/27 11:18:35;;;;;;;3.10;1.10;;;19.40;99.90;;;;;;5062103;28;20087;-72
2022/07/27 11:21:28;;;;;;;3.85;1.30;;;19.60;99.90;;;;;;5064051;28;20049;-73
2022/07/27 11:24:02;;;;;;;4.35;1.60;;;19.70;99.90;;;;;;5054117;28;20040;-72
2022/07/27 11:26:35;;;;;;;3.47;1.13;;;19.80;99.90;;;;;;5071134;28;20040;-72
2022/07/27 11:29:00;;;;;;;;;;;19.80;99.90;;;;;;5071786;28;20041;-72
2022/07/27 11:31:26;;;;;;;4.80;1.20;;;19.80;99.90;;;;;;5070396;28;19931;-72
2022/07/27 11:33:55;;;;;;;3.10;1.30;;;20.00;99.90;;;;;;5070684;28;20397;-72
2022/07/27 11:36:22;;;;;;;5.32;1.50;;;20.20;99.90;;;;;;5072224;28;20393;-72
2022/07/27 11:38:52;;;;;;;2.38;1.20;;;19.80;99.90;;;;;;5070406;28;20091;-72
2022/07/27 11:41:26;;;;;;;3.55;1.27;;;19.90;99.90;;;;;;5070535;28;20082;-73
2022/07/27 11:43:52;;;;;;;3.75;1.27;;;20.00;99.90;;;;;;5069334;28;20493;-72
2022/07/27 11:46:24;;;;;;;4.60;1.40;;;20.10;99.90;;;;;;5070484;28;20045;-72
2022/07/27 11:48:53;;;;;;;3.60;1.40;;;20.00;99.90;;;;;;5070157;28;20116;-70
2022/07/27 11:51:19;;;;;;;7.70;1.40;;;20.10;99.90;;;;;;5071842;28;20040;-73
2022/07/27 11:53:45;;;;;;;6.13;1.55;;;20.00;99.90;;;;;;5071488;28;20048;-73
2022/07/27 11:56:10;;;;;;;6.45;1.50;;;19.80;99.90;;;;;;5070667;28;20497;-72
2022/07/27 11:59:04;;;;;;;5.93;1.38;;;20.00;99.90;;;;;;5070941;28;20044;-72
2022/07/27 12:01:32;;;;;;;1.23;0.88;;;19.90;99.90;;;;;;5054080;28;20055;-72
2022/07/27 12:04:07;;;;;;;8.65;1.27;;;20.00;99.90;;;;;;5070440;28;20457;-72
2022/07/27 12:06:34;;;;;;;4.13;1.13;;;20.20;99.90;;;;;;5081208;28;20044;-73
2022/07/27 12:09:01;;;;;;;3.40;1.10;;;20.30;99.90;;;;;;5077255;28;20043;-72
2022/07/27 12:11:53;;;;;;;11.98;1.45;;;20.10;99.90;;;;;;5070305;28;20029;-72
2022/07/27 12:14:28;;;;;;;4.57;1.33;;;20.00;99.90;;;;;;5070036;28;20538;-73
2022/07/27 12:17:17;;;;;;;2.55;1.10;;;20.00;99.90;;;;;;5071781;28;20043;-73
2022/07/27 12:19:52;;;;;;;4.68;1.40;;;20.20;99.90;;;;;;5070335;28;20047;-74
2022/07/27 12:22:25;;;;;;;15.18;1.42;;;20.30;99.90;;;;;;5070471;28;20086;-74
2022/07/27 12:24:51;;;;;;;3.75;1.23;;;20.40;99.90;;;;;;5074397;28;20143;-73
2022/07/27 12:27:17;;;;;;;3.42;1.25;;;20.50;99.90;;;;;;5082822;28;20051;-73
2022/07/27 12:29:57;;;;;;;2.90;1.35;;;20.20;99.90;;;;;;5084986;28;20036;-73
2022/07/27 12:32:23;;;;;;;4.78;1.20;;;20.30;99.90;;;;;;5073120;28;20397;-72
2022/07/27 12:34:48;;;;;;;4.40;1.30;;;20.30;99.90;;;;;;5070045;28;20040;-73
2022/07/27 12:37:14;;;;;;;3.05;1.15;;;20.20;99.90;;;;;;5069864;28;20044;-71
2022/07/27 12:39:44;;;;;;;6.50;1.40;;;20.70;99.90;;;;;;5069711;28;20040;-71
2022/07/27 12:42:11;;;;;;;6.57;1.17;;;20.50;99.80;;;;;;5069456;28;20130;-73
2022/07/27 12:44:43;;;;;;;3.75;1.10;;;20.10;99.70;;;;;;5069161;28;20040;-73
2022/07/27 12:50:06;;;;;;;4.53;1.40;;;20.00;99.90;;;;;;5069269;28;20044;-72
2022/07/27 12:52:33;;;;;;;4.15;1.20;;;19.90;98.70;;;;;;5069051;28;20054;-73
2022/07/27 12:54:58;;;;;;;7.78;1.23;;;19.90;99.60;;;;;;5069480;28;20594;-73
2022/07/27 12:57:25;;;;;;;2.80;0.90;;;19.90;99.30;;;;;;5069505;28;20032;-73
2022/07/27 12:59:50;;;;;;;3.78;0.95;;;20.00;98.10;;;;;;5069176;28;20063;-73